Time;durP1;ratioP1;P1;durP2;ratioP2;P2;SDS_P1;SDS_P2;PMS_P1;PMS_P2;Temp;Humidity;BMP_temperature;BMP_pressure;BME280_temperature;BME280_humidity;BME280_pressure;Samples;Min_cycle;Max_cycle;Signal;HPM_P1;HPM_P2
2023/11/21 00:00:45;;;;;;;8.57;2.77;;;6.70;99.90;;;;;;5032095;28;20167;-56
2023/11/21 00:03:14;;;;;;;7.47;2.50;;;6.80;99.90;;;;;;5032331;28;20679;-52
2023/11/21 00:05:41;;;;;;;7.80;2.72;;;6.80;99.90;;;;;;5032258;28;20067;-51
2023/11/21 00:08:07;;;;;;;7.30;2.57;;;6.80;99.90;;;;;;5031893;28;20037;-54
2023/11/21 00:10:33;;;;;;;6.43;2.97;;;6.80;99.90;;;;;;5031610;28;20033;-52
2023/11/21 00:12:59;;;;;;;12.03;3.47;;;6.90;99.90;;;;;;5031797;28;20045;-54
2023/11/21 00:15:25;;;;;;;7.97;2.57;;;6.80;99.90;;;;;;5031788;28;20116;-52
2023/11/21 00:17:50;;;;;;;11.87;3.50;;;6.80;99.90;;;;;;5031828;28;20091;-54
2023/11/21 00:20:16;;;;;;;8.27;3.50;;;6.90;99.90;;;;;;5031225;28;20375;-51
2023/11/21 00:22:41;;;;;;;7.93;3.30;;;6.90;99.90;;;;;;5031704;28;20026;-51
2023/11/21 00:25:08;;;;;;;11.47;2.73;;;6.90;99.90;;;;;;5031759;28;20037;-56
2023/11/21 00:27:37;;;;;;;6.80;3.20;;;6.90;99.90;;;;;;5031639;28;20489;-53
2023/11/21 00:30:05;;;;;;;10.35;3.40;;;6.90;99.90;;;;;;5030055;28;20040;-52
2023/11/21 00:32:31;;;;;;;8.00;3.00;;;6.90;99.90;;;;;;5030436;28;20430;-50
2023/11/21 00:34:57;;;;;;;7.43;2.70;;;6.90;99.90;;;;;;5031572;28;20087;-54
2023/11/21 00:37:23;;;;;;;9.53;3.00;;;6.90;99.90;;;;;;5031370;28;20673;-53
2023/11/21 00:39:49;;;;;;;7.50;2.70;;;6.80;99.90;;;;;;5030838;28;20036;-52
2023/11/21 00:42:15;;;;;;;7.87;3.00;;;6.80;99.90;;;;;;5030179;28;20394;-54
2023/11/21 00:44:40;;;;;;;6.80;3.50;;;6.70;99.90;;;;;;5030015;28;20033;-53
2023/11/21 00:47:06;;;;;;;6.93;2.80;;;6.70;99.90;;;;;;5029967;28;20083;-55
2023/11/21 00:49:32;;;;;;;9.53;3.70;;;6.60;99.90;;;;;;5028898;28;20508;-53
2023/11/21 00:51:58;;;;;;;6.77;2.57;;;6.60;99.90;;;;;;5029829;28;20037;-53
2023/11/21 00:54:26;;;;;;;8.47;3.50;;;6.60;99.90;;;;;;5029763;28;20025;-53
2023/11/21 00:56:52;;;;;;;9.47;3.50;;;6.50;99.90;;;;;;5030803;28;20079;-51
2023/11/21 00:59:17;;;;;;;10.10;3.47;;;6.60;99.90;;;;;;5030634;28;20057;-52
2023/11/21 01:01:44;;;;;;;8.00;3.30;;;6.50;99.90;;;;;;5031046;28;20030;-51
2023/11/21 01:04:10;;;;;;;8.93;3.40;;;6.50;99.90;;;;;;5029678;28;20037;-55
2023/11/21 01:06:35;;;;;;;7.77;3.40;;;6.50;99.90;;;;;;5029692;28;20037;-55
2023/11/21 01:09:03;;;;;;;8.93;3.57;;;6.50;99.90;;;;;;5029312;28;20036;-50
2023/11/21 01:11:29;;;;;;;9.53;3.63;;;6.40;99.90;;;;;;5029525;28;20033;-53
2023/11/21 01:13:55;;;;;;;6.10;3.37;;;6.40;99.90;;;;;;5031080;28;20599;-55
2023/11/21 01:16:20;;;;;;;8.37;3.47;;;6.40;99.90;;;;;;5029785;28;20037;-51
2023/11/21 01:18:46;;;;;;;11.17;3.63;;;6.40;99.90;;;;;;5029341;28;20068;-55
2023/11/21 01:21:12;;;;;;;12.10;4.10;;;6.40;99.90;;;;;;5029523;28;20029;-52
2023/11/21 01:23:37;;;;;;;9.53;3.70;;;6.40;99.90;;;;;;5029775;28;20236;-52
2023/11/21 01:26:03;;;;;;;8.40;3.47;;;6.40;99.90;;;;;;5029456;28;20041;-54
2023/11/21 01:28:29;;;;;;;13.27;4.60;;;6.40;99.90;;;;;;5028992;28;20029;-53
2023/11/21 01:30:56;;;;;;;10.43;3.90;;;6.50;99.90;;;;;;5029420;28;20134;-53
2023/11/21 01:33:24;;;;;;;6.83;3.50;;;6.50;99.90;;;;;;5030588;28;20104;-52
2023/11/21 01:35:52;;;;;;;17.70;4.05;;;6.60;99.90;;;;;;5029339;28;20029;-54
2023/11/21 01:38:18;;;;;;;10.67;3.70;;;6.60;99.90;;;;;;5030460;28;20463;-54
2023/11/21 01:40:44;;;;;;;9.90;3.97;;;6.60;99.90;;;;;;5030193;28;20080;-52
2023/11/21 01:43:11;;;;;;;11.10;4.60;;;6.70;99.90;;;;;;5030941;28;20045;-51
2023/11/21 01:45:37;;;;;;;13.43;4.43;;;6.70;99.90;;;;;;5029296;28;20064;-54
2023/11/21 01:48:03;;;;;;;9.70;3.70;;;6.70;99.90;;;;;;5030342;28;20116;-52
2023/11/21 01:50:29;;;;;;;15.70;4.00;;;6.70;99.90;;;;;;5029047;28;20083;-55
2023/11/21 01:52:55;;;;;;;14.53;5.10;;;6.80;99.90;;;;;;5030509;28;20029;-55
2023/11/21 01:55:22;;;;;;;8.87;3.90;;;6.80;99.90;;;;;;5030366;28;20026;-54
2023/11/21 01:57:48;;;;;;;7.50;3.80;;;6.80;99.90;;;;;;5029125;28;20071;-55
2023/11/21 02:00:19;;;;;;;13.00;4.27;;;6.80;99.90;;;;;;5031210;28;20072;-51
2023/11/21 02:02:46;;;;;;;10.40;4.07;;;6.90;99.90;;;;;;5032921;28;20033;-53
2023/11/21 02:05:13;;;;;;;13.27;4.83;;;6.90;99.90;;;;;;5034244;28;20041;-54
2023/11/21 02:07:40;;;;;;;8.30;3.57;;;6.90;99.90;;;;;;5032781;28;20029;-52
2023/11/21 02:10:07;;;;;;;10.87;4.57;;;6.90;99.90;;;;;;5032296;28;20494;-54
2023/11/21 02:12:35;;;;;;;10.77;4.43;;;7.00;99.90;;;;;;5034271;28;20072;-51
2023/11/21 02:15:02;;;;;;;14.17;4.40;;;7.00;99.90;;;;;;5032604;28;20025;-51
2023/11/21 02:17:28;;;;;;;11.13;4.30;;;7.00;99.90;;;;;;5032559;28;20033;-54
2023/11/21 02:19:54;;;;;;;11.77;4.07;;;7.00;99.90;;;;;;5032412;28;20398;-51
2023/11/21 02:22:19;;;;;;;12.43;4.60;;;7.10;99.90;;;;;;5032807;28;20078;-50
2023/11/21 02:24:46;;;;;;;11.77;4.50;;;7.10;99.90;;;;;;5016228;28;20509;-55
2023/11/21 02:27:13;;;;;;;13.03;4.33;;;7.10;99.90;;;;;;5032510;28;20036;-54
2023/11/21 02:29:39;;;;;;;12.93;4.40;;;7.10;99.90;;;;;;5032093;28;20036;-54
2023/11/21 02:32:05;;;;;;;12.60;4.80;;;7.10;99.90;;;;;;5032635;28;20041;-53
2023/11/21 02:34:31;;;;;;;18.13;5.07;;;7.10;99.90;;;;;;5032686;28;20033;-53
2023/11/21 02:36:57;;;;;;;11.53;4.60;;;7.00;99.90;;;;;;5034007;28;20040;-54
2023/11/21 02:39:23;;;;;;;6.30;3.57;;;7.10;99.90;;;;;;5032143;28;20034;-51
2023/11/21 02:41:49;;;;;;;7.30;3.63;;;7.10;99.90;;;;;;5033723;28;20497;-54
2023/11/21 02:44:14;;;;;;;8.30;3.70;;;7.10;99.90;;;;;;5032290;28;20034;-53
2023/11/21 02:46:40;;;;;;;7.63;3.67;;;7.10;99.90;;;;;;5033796;28;20022;-52
2023/11/21 02:49:06;;;;;;;11.10;4.03;;;7.10;99.90;;;;;;5033193;28;20038;-56
2023/11/21 02:51:33;;;;;;;8.67;4.07;;;7.20;99.90;;;;;;5032163;28;20117;-56
2023/11/21 02:54:00;;;;;;;9.93;3.47;;;7.20;99.90;;;;;;5033239;28;20033;-56
2023/11/21 02:56:27;;;;;;;13.35;3.80;;;7.20;99.90;;;;;;5033256;28;20037;-55
2023/11/21 02:58:55;;;;;;;8.97;3.70;;;7.20;99.90;;;;;;5031311;28;20033;-55
2023/11/21 03:01:21;;;;;;;9.73;3.77;;;7.20;99.90;;;;;;5033359;28;20471;-52
2023/11/21 03:03:47;;;;;;;12.97;4.00;;;7.20;99.90;;;;;;5015439;28;20035;-51
2023/11/21 03:06:13;;;;;;;9.63;3.40;;;7.20;99.90;;;;;;5033064;28;20030;-55
2023/11/21 03:08:39;;;;;;;13.73;4.23;;;7.20;99.90;;;;;;5031189;28;20060;-55
2023/11/21 03:11:04;;;;;;;14.07;4.83;;;7.10;99.90;;;;;;5031686;28;20112;-54
2023/11/21 03:13:30;;;;;;;13.60;4.70;;;7.10;99.90;;;;;;5031903;28;20143;-53
2023/11/21 03:15:57;;;;;;;14.33;4.10;;;7.10;99.90;;;;;;5031875;28;20041;-52
2023/11/21 03:18:23;;;;;;;11.13;4.43;;;7.10;99.90;;;;;;5033103;28;20055;-51
2023/11/21 03:20:49;;;;;;;11.80;4.87;;;7.10;99.90;;;;;;5032820;28;20550;-55
2023/11/21 03:23:15;;;;;;;14.83;4.57;;;7.10;99.90;;;;;;5031962;28;20029;-51
2023/11/21 03:25:40;;;;;;;9.00;4.17;;;7.20;99.90;;;;;;5032813;28;20061;-55
2023/11/21 03:28:08;;;;;;;10.47;3.80;;;7.20;99.90;;;;;;5031462;28;20072;-54
2023/11/21 03:30:35;;;;;;;11.95;4.07;;;7.20;99.90;;;;;;5032448;28;20026;-53
2023/11/21 03:33:01;;;;;;;13.60;5.03;;;7.20;99.90;;;;;;5031275;28;20034;-54
2023/11/21 03:35:26;;;;;;;14.77;5.07;;;7.30;99.90;;;;;;5031562;28;20045;-55
2023/11/21 03:37:52;;;;;;;12.23;4.30;;;7.40;99.90;;;;;;5032559;28;20095;-53
2023/11/21 03:40:18;;;;;;;16.50;4.87;;;7.40;99.90;;;;;;5032002;28;20116;-55
2023/11/21 03:42:43;;;;;;;12.87;4.07;;;7.30;99.90;;;;;;5032033;28;20142;-53
2023/11/21 03:45:09;;;;;;;14.20;4.80;;;7.20;99.90;;;;;;5032854;28;20032;-51
2023/11/21 03:47:35;;;;;;;12.27;5.17;;;7.20;99.90;;;;;;5032569;28;20064;-50
2023/11/21 03:50:01;;;;;;;14.87;4.80;;;7.30;99.90;;;;;;5030638;28;20075;-54
2023/11/21 03:52:28;;;;;;;12.23;4.43;;;7.30;99.90;;;;;;5032239;28;20116;-54
2023/11/21 03:54:54;;;;;;;15.70;5.70;;;7.30;99.90;;;;;;5032209;28;20025;-53
2023/11/21 03:57:21;;;;;;;16.47;5.43;;;7.30;99.90;;;;;;5030758;28;20079;-54
2023/11/21 03:59:46;;;;;;;13.37;4.37;;;7.20;99.90;;;;;;5031737;28;20033;-53
2023/11/21 04:02:12;;;;;;;10.67;4.70;;;7.20;99.90;;;;;;5032115;28;20394;-54
2023/11/21 04:04:38;;;;;;;14.03;4.47;;;7.30;99.90;;;;;;5032229;28;20022;-53
2023/11/21 04:07:04;;;;;;;15.50;5.13;;;7.30;99.90;;;;;;5032309;28;20124;-50
2023/11/21 04:09:30;;;;;;;14.57;4.83;;;7.30;99.90;;;;;;5031399;28;20037;-52
2023/11/21 04:11:55;;;;;;;14.60;5.00;;;7.30;99.90;;;;;;5032013;28;20042;-55
2023/11/21 04:14:22;;;;;;;15.93;4.90;;;7.30;99.90;;;;;;5031897;28;20132;-55
2023/11/21 04:16:48;;;;;;;17.20;4.77;;;7.30;99.90;;;;;;5031790;28;20124;-54
2023/11/21 04:19:14;;;;;;;15.23;4.50;;;7.30;99.90;;;;;;5031178;28;20410;-54
2023/11/21 04:21:41;;;;;;;12.30;4.90;;;7.30;99.90;;;;;;5031872;28;20026;-53
2023/11/21 04:24:07;;;;;;;11.27;5.20;;;7.30;99.90;;;;;;5030757;28;20033;-55
2023/11/21 04:26:33;;;;;;;14.37;5.10;;;7.40;99.90;;;;;;5031571;28;20025;-54
2023/11/21 04:28:59;;;;;;;12.53;4.67;;;7.40;99.90;;;;;;5031136;28;20425;-52
2023/11/21 04:31:24;;;;;;;15.23;5.07;;;7.40;99.90;;;;;;5031553;28;20096;-56
2023/11/21 04:33:50;;;;;;;13.73;4.97;;;7.40;99.90;;;;;;5031482;28;20033;-55
2023/11/21 04:36:15;;;;;;;11.73;5.43;;;7.40;99.90;;;;;;5031043;28;20033;-55
2023/11/21 04:38:41;;;;;;;15.50;5.50;;;7.40;99.90;;;;;;5030884;28;20325;-51
2023/11/21 04:41:07;;;;;;;17.47;5.20;;;7.40;99.90;;;;;;5031334;28;20041;-53
2023/11/21 04:43:33;;;;;;;16.07;5.43;;;7.40;99.90;;;;;;5031347;28;20498;-55
2023/11/21 04:45:59;;;;;;;12.73;5.07;;;7.40;99.90;;;;;;5031460;28;20033;-50
2023/11/21 04:48:25;;;;;;;13.60;5.43;;;7.40;99.90;;;;;;5030963;28;20041;-51
2023/11/21 04:50:51;;;;;;;15.00;4.93;;;7.40;99.90;;;;;;5031570;28;20025;-54
2023/11/21 04:53:17;;;;;;;13.40;5.17;;;7.50;99.90;;;;;;5031527;28;20128;-56
2023/11/21 04:55:43;;;;;;;12.50;5.73;;;7.50;99.90;;;;;;5031062;28;20116;-53
2023/11/21 04:58:09;;;;;;;11.37;5.00;;;7.50;99.90;;;;;;5030974;28;20030;-56
2023/11/21 05:00:36;;;;;;;11.40;4.93;;;7.50;99.90;;;;;;5030842;28;20044;-55
2023/11/21 05:03:03;;;;;;;12.60;4.80;;;7.50;99.90;;;;;;5031244;28;20107;-55
2023/11/21 05:05:29;;;;;;;14.07;5.57;;;7.50;99.90;;;;;;5031090;28;20040;-54
2023/11/21 05:07:55;;;;;;;13.03;5.70;;;7.50;99.90;;;;;;5030863;28;20095;-55
2023/11/21 05:10:22;;;;;;;16.27;5.43;;;7.50;99.90;;;;;;5030493;28;20033;-53
2023/11/21 05:12:49;;;;;;;14.97;6.77;;;7.60;99.90;;;;;;5031427;28;20034;-53
2023/11/21 05:15:17;;;;;;;12.87;5.80;;;7.70;99.90;;;;;;5031074;28;20426;-55
2023/11/21 05:17:49;;;;;;;13.23;5.30;;;7.60;99.90;;;;;;5031001;28;20029;-55
2023/11/21 05:20:23;;;;;;;15.50;5.47;;;7.60;99.90;;;;;;5030574;28;20030;-55
2023/11/21 05:22:49;;;;;;;12.90;5.73;;;7.50;99.90;;;;;;5031093;28;20112;-50
2023/11/21 05:25:18;;;;;;;14.17;5.00;;;7.60;99.90;;;;;;5030943;28;20021;-54
2023/11/21 05:27:44;;;;;;;13.73;5.75;;;7.60;99.90;;;;;;5030916;28;20105;-50
2023/11/21 05:30:12;;;;;;;15.27;5.70;;;7.60;99.90;;;;;;5030403;28;20125;-52
2023/11/21 05:32:38;;;;;;;15.73;5.90;;;7.50;99.90;;;;;;5030921;28;20489;-52
2023/11/21 05:35:09;;;;;;;16.13;5.33;;;7.50;99.90;;;;;;5033274;28;20087;-55
2023/11/21 05:37:35;;;;;;;11.47;5.77;;;7.50;99.90;;;;;;5035098;28;20026;-53
2023/11/21 05:40:05;;;;;;;15.67;5.47;;;7.50;99.90;;;;;;5034688;28;20029;-54
2023/11/21 05:42:31;;;;;;;12.97;6.57;;;7.50;99.90;;;;;;5035195;28;20032;-55
2023/11/21 05:44:59;;;;;;;14.33;5.83;;;7.50;99.90;;;;;;5035591;28;20121;-50
2023/11/21 05:47:26;;;;;;;13.27;5.27;;;7.50;99.90;;;;;;5034799;28;20175;-55
2023/11/21 05:49:52;;;;;;;12.50;5.53;;;7.60;99.90;;;;;;5034152;28;20147;-54
2023/11/21 05:52:18;;;;;;;14.13;6.30;;;7.60;99.90;;;;;;5035319;28;20479;-55
2023/11/21 05:54:43;;;;;;;14.20;5.73;;;7.60;99.90;;;;;;5034885;28;20033;-52
2023/11/21 05:57:09;;;;;;;22.53;6.47;;;7.60;99.90;;;;;;5034687;28;20060;-54
2023/11/21 05:59:35;;;;;;;16.57;6.27;;;7.60;99.90;;;;;;5034220;28;20030;-50
2023/11/21 06:02:00;;;;;;;14.00;5.60;;;7.60;99.90;;;;;;5033040;28;20095;-50
2023/11/21 06:04:26;;;;;;;13.40;5.60;;;7.60;99.90;;;;;;5034181;28;20033;-52
2023/11/21 06:06:52;;;;;;;15.17;6.20;;;7.70;99.90;;;;;;5034313;28;20037;-50
2023/11/21 06:09:18;;;;;;;14.63;6.03;;;7.70;99.90;;;;;;5033704;28;20049;-53
2023/11/21 06:11:44;;;;;;;14.57;6.20;;;7.70;99.90;;;;;;5033009;28;20041;-54
2023/11/21 06:14:10;;;;;;;12.67;5.93;;;7.70;99.90;;;;;;5034142;28;20063;-53
2023/11/21 06:16:36;;;;;;;18.93;6.40;;;7.70;99.90;;;;;;5034095;28;20041;-53
2023/11/21 06:19:02;;;;;;;14.77;6.73;;;7.60;99.90;;;;;;5033514;28;20577;-49
2023/11/21 06:21:27;;;;;;;14.37;5.70;;;7.60;99.90;;;;;;5034477;28;20486;-51
2023/11/21 06:23:53;;;;;;;24.00;7.50;;;7.60;99.90;;;;;;5033415;28;20390;-54
2023/11/21 06:26:20;;;;;;;27.37;8.43;;;7.70;99.90;;;;;;5033901;28;20178;-50
2023/11/21 06:28:45;;;;;;;30.50;9.33;;;7.70;99.90;;;;;;5033555;28;20584;-54
2023/11/21 06:31:12;;;;;;;25.13;8.60;;;7.70;99.90;;;;;;5033895;28;20033;-53
2023/11/21 06:33:38;;;;;;;36.47;10.07;;;7.70;99.90;;;;;;5033877;28;20038;-57
2023/11/21 06:36:04;;;;;;;29.47;9.80;;;7.80;99.90;;;;;;5033765;28;20033;-50
2023/11/21 06:38:30;;;;;;;26.80;9.80;;;7.80;99.90;;;;;;5033307;28;20030;-53
2023/11/21 06:41:01;;;;;;;29.83;9.30;;;7.80;99.90;;;;;;5033519;28;20036;-53
2023/11/21 06:43:27;;;;;;;31.77;9.40;;;7.80;99.90;;;;;;5033493;28;20029;-54
2023/11/21 06:45:53;;;;;;;40.43;10.73;;;8.00;99.90;;;;;;5032283;28;20025;-55
2023/11/21 06:48:18;;;;;;;33.30;10.50;;;8.00;99.90;;;;;;5033242;28;20029;-54
2023/11/21 06:50:44;;;;;;;31.83;10.23;;;8.00;99.90;;;;;;5033043;28;20022;-52
2023/11/21 06:53:15;;;;;;;31.40;9.30;;;7.90;99.90;;;;;;5033604;28;20404;-55
2023/11/21 06:55:41;;;;;;;28.80;9.43;;;7.90;99.90;;;;;;5033209;28;20037;-54
2023/11/21 06:58:06;;;;;;;37.23;9.77;;;7.90;99.90;;;;;;5033626;28;20139;-54
2023/11/21 07:00:32;;;;;;;37.00;11.13;;;7.90;99.90;;;;;;5032866;28;20022;-54
2023/11/21 07:02:57;;;;;;;33.80;11.33;;;7.90;99.90;;;;;;5033062;28;20095;-51
2023/11/21 07:05:23;;;;;;;31.37;10.43;;;8.00;99.90;;;;;;5033403;28;20027;-53
2023/11/21 07:07:49;;;;;;;32.70;11.17;;;8.00;99.90;;;;;;5031728;28;20032;-53
2023/11/21 07:10:15;;;;;;;31.97;10.77;;;8.00;99.90;;;;;;5032495;28;20099;-50
2023/11/21 07:12:41;;;;;;;38.87;11.13;;;8.00;99.90;;;;;;5033006;28;20037;-51
2023/11/21 07:15:09;;;;;;;34.07;10.93;;;8.00;99.90;;;;;;5033047;28;20063;-51
2023/11/21 07:17:38;;;;;;;31.83;10.67;;;8.00;99.90;;;;;;5032839;28;20072;-52
2023/11/21 07:20:04;;;;;;;34.42;11.27;;;8.00;99.90;;;;;;5032394;28;20470;-54
2023/11/21 07:22:30;;;;;;;41.50;12.13;;;8.00;99.90;;;;;;5033022;28;20025;-50
2023/11/21 07:24:58;;;;;;;39.67;12.13;;;8.00;99.90;;;;;;5032838;28;20375;-54
2023/11/21 07:27:24;;;;;;;37.85;11.45;;;8.00;99.90;;;;;;5033203;28;20068;-53
2023/11/21 07:29:49;;;;;;;34.60;10.93;;;8.00;99.90;;;;;;5032466;28;20060;-54
2023/11/21 07:32:15;;;;;;;39.67;12.53;;;8.00;99.90;;;;;;5032733;28;20445;-51
2023/11/21 07:34:41;;;;;;;46.77;13.27;;;8.10;99.90;;;;;;5032689;28;20048;-55
2023/11/21 07:37:08;;;;;;;37.33;11.27;;;8.10;99.90;;;;;;5032576;28;20033;-53
2023/11/21 07:39:35;;;;;;;44.37;12.43;;;8.10;99.90;;;;;;5032120;28;20025;-53
2023/11/21 07:42:02;;;;;;;35.90;12.67;;;8.10;99.90;;;;;;5032388;28;20072;-52
2023/11/21 07:44:28;;;;;;;43.70;12.53;;;8.10;99.90;;;;;;5032356;28;20034;-53
2023/11/21 07:46:57;;;;;;;33.07;11.47;;;8.10;99.90;;;;;;5032454;28;20113;-54
2023/11/21 07:49:23;;;;;;;43.42;11.80;;;8.10;99.90;;;;;;5030603;28;20482;-54
2023/11/21 07:51:49;;;;;;;37.63;11.23;;;8.10;99.90;;;;;;5032286;28;20065;-55
2023/11/21 07:54:15;;;;;;;46.83;13.83;;;8.20;99.90;;;;;;5032291;28;20110;-53
2023/11/21 07:56:42;;;;;;;41.27;11.43;;;8.20;99.90;;;;;;5032024;28;20029;-55
2023/11/21 07:59:07;;;;;;;39.97;11.13;;;8.20;99.90;;;;;;5030464;28;20065;-55
2023/11/21 08:01:33;;;;;;;38.80;11.17;;;8.30;99.90;;;;;;5030830;28;20068;-55
2023/11/21 08:04:03;;;;;;;44.30;11.53;;;8.30;99.90;;;;;;5032051;28;20017;-54
2023/11/21 08:06:30;;;;;;;38.70;11.77;;;8.30;99.90;;;;;;5032130;28;20045;-55
2023/11/21 08:08:56;;;;;;;40.33;12.43;;;8.40;99.90;;;;;;5032165;28;20352;-51
2023/11/21 08:11:22;;;;;;;38.87;11.97;;;8.40;99.90;;;;;;5032764;28;20037;-51
2023/11/21 08:13:48;;;;;;;41.13;12.50;;;8.40;99.90;;;;;;5032165;28;20056;-52
2023/11/21 08:16:13;;;;;;;39.73;11.80;;;8.50;99.90;;;;;;5031963;28;20040;-55
2023/11/21 08:18:40;;;;;;;43.20;11.50;;;8.50;99.90;;;;;;5031518;28;20033;-51
2023/11/21 08:21:05;;;;;;;37.17;12.80;;;8.60;99.90;;;;;;5032024;28;20056;-54
2023/11/21 08:23:31;;;;;;;36.83;12.13;;;8.60;99.90;;;;;;5031922;28;20057;-51
2023/11/21 08:25:57;;;;;;;39.23;11.17;;;8.60;99.90;;;;;;5031872;28;20045;-50
2023/11/21 08:28:25;;;;;;;38.13;12.17;;;8.60;99.90;;;;;;5030336;28;20076;-53
2023/11/21 08:30:52;;;;;;;38.60;12.80;;;8.60;99.90;;;;;;5031694;28;20041;-55
2023/11/21 08:33:17;;;;;;;37.77;11.53;;;8.60;99.90;;;;;;5031854;28;20367;-54
2023/11/21 08:35:43;;;;;;;33.03;10.97;;;8.60;99.90;;;;;;5031471;28;20060;-55
2023/11/21 08:38:10;;;;;;;37.00;12.40;;;8.60;99.90;;;;;;5031180;28;20026;-55
2023/11/21 08:40:35;;;;;;;40.60;13.40;;;8.60;99.90;;;;;;5030856;28;20479;-53
2023/11/21 08:43:02;;;;;;;45.57;13.40;;;8.60;99.90;;;;;;5031388;28;20025;-53
2023/11/21 08:45:28;;;;;;;41.67;12.67;;;8.60;99.90;;;;;;5031148;28;20497;-55
2023/11/21 08:47:54;;;;;;;38.47;12.20;;;8.70;99.90;;;;;;5030049;28;20025;-54
2023/11/21 08:50:19;;;;;;;41.80;12.43;;;8.70;99.90;;;;;;5030856;28;20499;-54
2023/11/21 08:52:48;;;;;;;41.60;13.00;;;8.70;99.90;;;;;;5031119;28;20034;-53
2023/11/21 08:55:14;;;;;;;34.63;11.20;;;8.60;99.90;;;;;;5031318;28;20044;-56
2023/11/21 08:57:41;;;;;;;37.53;11.80;;;8.70;99.90;;;;;;5031117;28;20112;-52
2023/11/21 09:00:11;;;;;;;40.17;12.60;;;8.60;99.90;;;;;;5030524;28;20026;-55
2023/11/21 09:02:41;;;;;;;40.40;11.83;;;8.70;99.90;;;;;;5031058;28;20490;-53
2023/11/21 09:05:09;;;;;;;34.30;12.43;;;8.70;99.90;;;;;;5030978;28;20026;-54
2023/11/21 09:07:35;;;;;;;39.33;12.87;;;8.80;99.90;;;;;;5030805;28;20095;-52
2023/11/21 09:10:01;;;;;;;36.73;12.50;;;8.90;99.90;;;;;;5029927;28;20076;-54
2023/11/21 09:12:27;;;;;;;34.53;11.73;;;8.90;99.90;;;;;;5030808;28;20104;-55
2023/11/21 09:14:53;;;;;;;34.70;11.43;;;8.90;99.90;;;;;;5030716;28;20435;-53
2023/11/21 09:17:19;;;;;;;39.43;10.87;;;8.90;99.90;;;;;;5030819;28;20042;-54
2023/11/21 09:19:49;;;;;;;33.23;11.57;;;8.90;99.90;;;;;;5030356;28;20087;-54
2023/11/21 09:22:15;;;;;;;34.83;12.27;;;8.90;99.90;;;;;;5029211;28;20080;-54
2023/11/21 09:24:41;;;;;;;36.77;11.53;;;8.90;99.90;;;;;;5030573;28;20477;-55
2023/11/21 09:27:06;;;;;;;34.70;11.67;;;8.90;99.90;;;;;;5029642;28;20041;-55
2023/11/21 09:29:32;;;;;;;34.27;11.43;;;9.00;99.90;;;;;;5030489;28;20037;-55
2023/11/21 09:32:01;;;;;;;34.00;11.17;;;9.00;99.90;;;;;;5031438;28;20037;-51
2023/11/21 09:34:26;;;;;;;40.17;13.00;;;9.00;99.90;;;;;;5030678;28;20091;-54
2023/11/21 09:36:53;;;;;;;33.23;11.40;;;9.10;99.90;;;;;;5030592;28;20042;-52
2023/11/21 09:39:19;;;;;;;33.80;11.97;;;9.10;99.90;;;;;;5030503;28;20036;-52
2023/11/21 09:41:50;;;;;;;37.37;12.90;;;9.10;99.90;;;;;;5030765;28;20100;-51
2023/11/21 09:44:19;;;;;;;35.10;11.23;;;9.20;99.90;;;;;;5030488;28;20040;-54
2023/11/21 09:46:50;;;;;;;33.28;11.25;;;9.20;99.90;;;;;;5030412;28;20041;-56
2023/11/21 09:49:22;;;;;;;33.13;11.77;;;9.20;99.90;;;;;;5029758;28;20037;-55
2023/11/21 09:51:50;;;;;;;45.17;14.33;;;9.20;99.90;;;;;;5030338;28;20398;-54
2023/11/21 09:54:17;;;;;;;46.30;14.60;;;9.20;99.90;;;;;;5030287;28;20041;-55
2023/11/21 09:56:43;;;;;;;50.20;15.43;;;9.10;99.90;;;;;;5028891;28;20099;-53
2023/11/21 09:59:15;;;;;;;51.67;15.33;;;9.10;99.90;;;;;;5029925;28;20029;-55
2023/11/21 10:01:42;;;;;;;48.40;15.07;;;9.10;99.90;;;;;;5029917;28;20064;-55
2023/11/21 10:04:14;;;;;;;52.20;15.50;;;9.10;99.90;;;;;;5030372;28;20579;-55
2023/11/21 10:06:45;;;;;;;50.27;14.90;;;9.10;99.90;;;;;;5030296;28;20105;-56
2023/11/21 10:09:13;;;;;;;50.30;15.73;;;9.10;99.90;;;;;;5029646;28;20086;-55
2023/11/21 10:11:43;;;;;;;48.27;15.07;;;9.10;99.90;;;;;;5030148;28;20033;-55
2023/11/21 10:14:12;;;;;;;48.20;15.23;;;9.10;99.90;;;;;;5030567;28;20519;-54
2023/11/21 10:16:39;;;;;;;50.38;17.20;;;9.20;99.90;;;;;;5029954;28;20036;-55
2023/11/21 10:19:06;;;;;;;51.57;15.47;;;9.20;99.90;;;;;;5029237;28;20373;-54
2023/11/21 10:21:35;;;;;;;49.13;15.73;;;9.20;99.90;;;;;;5030916;28;20045;-56
2023/11/21 10:24:01;;;;;;;56.92;16.20;;;9.20;99.90;;;;;;5033104;28;20029;-52
2023/11/21 10:26:28;;;;;;;60.40;17.37;;;9.30;99.90;;;;;;5033377;28;20033;-55
2023/11/21 10:29:03;;;;;;;58.23;17.83;;;9.30;99.90;;;;;;5031977;28;20521;-52
2023/11/21 10:31:30;;;;;;;55.37;17.03;;;9.40;99.90;;;;;;5033622;28;20040;-55
2023/11/21 10:34:13;;;;;;;63.03;19.17;;;9.50;99.90;;;;;;5033446;28;20029;-54
2023/11/21 10:36:39;;;;;;;73.53;20.10;;;9.50;99.90;;;;;;5033501;28;20435;-56
2023/11/21 10:39:05;;;;;;;58.70;17.93;;;9.50;99.90;;;;;;5032916;28;20037;-55
2023/11/21 10:41:30;;;;;;;62.77;18.87;;;9.60;99.90;;;;;;5033300;28;20060;-56
2023/11/21 10:43:56;;;;;;;59.63;18.73;;;9.60;99.90;;;;;;5033544;28;20017;-52
2023/11/21 10:46:23;;;;;;;62.37;18.07;;;9.60;99.90;;;;;;5032381;28;20564;-56
2023/11/21 10:48:56;;;;;;;66.23;19.67;;;9.60;99.90;;;;;;5033199;28;20409;-55
2023/11/21 10:51:24;;;;;;;61.80;20.07;;;9.60;99.90;;;;;;5033109;28;20041;-56
2023/11/21 10:53:51;;;;;;;69.57;20.80;;;9.60;99.90;;;;;;5033449;28;20398;-51
2023/11/21 10:56:21;;;;;;;66.47;19.37;;;9.50;99.90;;;;;;5033868;28;20271;-55
2023/11/21 10:58:48;;;;;;;66.20;20.07;;;9.60;99.90;;;;;;5032797;28;20104;-54
2023/11/21 11:01:17;;;;;;;70.23;21.20;;;9.60;99.90;;;;;;5032164;28;20030;-53
2023/11/21 11:03:44;;;;;;;65.72;19.48;;;9.70;99.90;;;;;;5033666;28;20216;-53
2023/11/21 11:06:11;;;;;;;69.97;21.27;;;9.80;99.90;;;;;;5033348;28;20097;-51
2023/11/21 11:08:39;;;;;;;65.10;20.57;;;9.80;99.90;;;;;;5032881;28;20029;-51
2023/11/21 11:11:05;;;;;;;84.47;23.03;;;9.90;99.90;;;;;;5033621;28;20517;-53
2023/11/21 11:13:31;;;;;;;74.93;20.93;;;9.90;99.90;;;;;;5033196;28;20083;-51
2023/11/21 11:16:06;;;;;;;64.27;21.27;;;10.00;99.90;;;;;;5032937;28;20037;-51
2023/11/21 11:18:33;;;;;;;74.17;23.47;;;10.00;99.90;;;;;;5031169;28;20080;-51
2023/11/21 11:21:18;;;;;;;82.40;24.53;;;10.10;99.90;;;;;;5032760;28;20033;-51
2023/11/21 11:24:09;;;;;;;81.03;23.73;;;10.10;99.90;;;;;;5033250;28;20064;-51
2023/11/21 11:27:08;;;;;;;85.03;23.10;;;10.10;99.90;;;;;;5032505;28;20037;-55
2023/11/21 11:29:55;;;;;;;79.35;23.42;;;10.00;99.90;;;;;;5032188;28;20043;-54
2023/11/21 11:32:40;;;;;;;83.30;24.00;;;10.00;99.90;;;;;;5032031;28;20041;-54
2023/11/21 11:35:34;;;;;;;83.53;24.50;;;10.00;99.90;;;;;;5032397;28;20033;-53
2023/11/21 11:38:00;;;;;;;79.40;22.73;;;10.10;99.90;;;;;;5032716;28;20378;-53
2023/11/21 11:40:46;;;;;;;75.60;23.60;;;10.10;99.90;;;;;;5032015;28;20034;-53
2023/11/21 11:43:12;;;;;;;77.10;22.60;;;10.10;99.90;;;;;;5032276;28;20030;-53
2023/11/21 11:45:41;;;;;;;77.53;23.20;;;10.00;99.90;;;;;;5032284;28;20526;-55
2023/11/21 11:48:08;;;;;;;72.03;23.67;;;9.90;99.90;;;;;;5032166;28;20108;-55
2023/11/21 11:50:34;;;;;;;78.33;22.60;;;9.90;99.90;;;;;;5031158;28;20478;-53
2023/11/21 11:53:19;;;;;;;72.57;21.37;;;9.90;99.90;;;;;;5031162;28;20383;-53
2023/11/21 11:55:45;;;;;;;67.90;21.53;;;9.90;99.90;;;;;;5031034;28;20410;-55
2023/11/21 11:58:11;;;;;;;68.70;21.23;;;10.00;99.90;;;;;;5030967;28;20029;-53
2023/11/21 12:00:37;;;;;;;69.00;21.70;;;10.00;99.90;;;;;;5031026;28;20483;-55
2023/11/21 12:03:05;;;;;;;64.00;21.53;;;10.20;99.90;;;;;;5031447;28;20516;-54
2023/11/21 12:05:43;;;;;;;67.60;21.17;;;10.30;99.90;;;;;;5031373;28;20115;-51
2023/11/21 12:08:10;;;;;;;70.25;22.48;;;10.50;99.90;;;;;;5031273;28;20034;-55
2023/11/21 12:10:39;;;;;;;61.03;20.90;;;10.70;99.90;;;;;;5031175;28;20033;-53
2023/11/21 12:13:10;;;;;;;64.95;21.70;;;10.90;99.90;;;;;;5031131;28;20034;-54
2023/11/21 12:15:36;;;;;;;58.15;20.55;;;11.20;99.90;;;;;;5031741;28;20030;-53
2023/11/21 12:18:03;;;;;;;68.32;20.42;;;11.30;99.90;;;;;;5031612;28;20033;-55
2023/11/21 12:20:30;;;;;;;59.45;20.42;;;11.60;99.90;;;;;;5031265;28;20053;-55
2023/11/21 12:23:00;;;;;;;51.95;20.27;;;11.80;99.90;;;;;;5031629;28;20048;-52
2023/11/21 12:25:34;;;;;;;52.25;19.15;;;12.10;99.90;;;;;;5031180;28;20128;-56
2023/11/21 12:28:00;;;;;;;54.83;19.60;;;12.20;99.90;;;;;;5031426;28;20036;-54
2023/11/21 12:30:30;;;;;;;50.85;18.30;;;12.00;99.90;;;;;;5031096;28;20026;-56
2023/11/21 12:32:57;;;;;;;52.30;18.23;;;11.90;99.90;;;;;;5030156;28;20033;-55
2023/11/21 12:35:26;;;;;;;48.25;18.55;;;11.70;99.90;;;;;;5031357;28;20041;-55
2023/11/21 12:37:53;;;;;;;46.92;16.50;;;11.40;99.90;;;;;;5031401;28;20466;-53
2023/11/21 12:40:19;;;;;;;50.53;17.95;;;11.10;99.90;;;;;;5031148;28;20056;-54
2023/11/21 12:42:48;;;;;;;50.88;17.13;;;11.00;99.90;;;;;;5031281;28;20036;-55